Time;durP1;ratioP1;P1;durP2;ratioP2;P2;SDS_P1;SDS_P2;PMS_P1;PMS_P2;Temp;Humidity;BMP_temperature;BMP_pressure;BME280_temperature;BME280_humidity;BME280_pressure;Samples;Min_cycle;Max_cycle;Signal;HPM_P1;HPM_P2
2022/12/30 08:22:31;;;;;;;;;;;;;;;6.11;80.08;98172.88;5351357;23;19966;-67
2022/12/30 08:24:56;;;;;;;;;;;;;;;5.95;81.22;98170.19;4871483;29;19963;-67
2022/12/30 08:27:21;;;;;;;;;;;;;;;5.84;81.56;98173.28;4867057;29;19928;-67
2022/12/30 08:29:46;;;;;;;;;;;;;;;5.80;81.75;98171.75;4880897;29;19915;-67
2022/12/30 08:32:11;;;;;;;;;;;;;;;5.74;82.79;98182.47;4870520;29;19956;-68
2022/12/30 08:34:37;;;;;;;;;;;;;;;5.68;83.30;98178.44;4863882;29;19921;-67
2022/12/30 08:37:02;;;;;;;;;;;;;;;5.67;83.75;98171.53;4862477;29;19922;-68
2022/12/30 08:39:27;;;;;;;;;;;;;;;5.64;83.58;98171.69;4859590;29;20445;-68
2022/12/30 08:41:52;;;;;;;;;;;;;;;5.64;84.00;98178.63;4860371;29;20345;-67
2022/12/30 08:44:17;;;;;;;;;;;;;;;5.63;84.65;98174.38;4860621;29;19924;-67
2022/12/30 08:46:43;;;;;;;;;;;;;;;5.60;84.89;98175.34;4860925;29;19921;-67
2022/12/30 08:49:08;;;;;;;;;;;;;;;5.61;85.33;98168.38;4859838;29;19962;-67
2022/12/30 08:51:34;;;;;;;;;;;;;;;5.64;85.35;98170.84;4861198;29;19924;-67
2022/12/30 08:53:59;;;;;;;;;;;;;;;5.62;85.32;98172.69;4865969;29;20269;-66
2022/12/30 08:56:28;;;;;;;;;;;;;;;5.65;86.16;98180.34;4845244;29;19927;-67
2022/12/30 08:58:53;;;;;;;;;;;;;;;5.65;85.69;98173.38;4845736;29;20422;-67
2022/12/30 09:01:20;;;;;;;;;;;;;;;5.70;85.82;98178.34;4860592;29;19921;-65
2022/12/30 09:03:45;;;;;;;;;;;;;;;5.71;85.91;98172.22;4845841;29;19916;-65
2022/12/30 09:06:11;;;;;;;;;;;;;;;5.72;85.87;98168.72;4861954;29;20317;-65
2022/12/30 09:08:37;;;;;;;;;;;;;;;5.74;86.16;98166.84;4845972;29;19916;-65
2022/12/30 09:11:06;;;;;;;;;;;;;;;5.77;86.04;98164.09;4861559;29;20373;-65
2022/12/30 09:13:31;;;;;;;;;;;;;;;5.80;86.59;98165.72;4842406;29;19931;-64
2022/12/30 09:15:56;;;;;;;;;;;;;;;5.82;85.88;98169.09;4862367;29;20296;-65
2022/12/30 09:18:22;;;;;;;;;;;;;;;5.75;86.59;98173.78;4859057;29;19924;-65
2022/12/30 09:20:47;;;;;;;;;;;;;;;5.80;86.40;98174.38;4860432;29;19927;-65
2022/12/30 09:23:12;;;;;;;;;;;;;;;5.82;86.80;98162.13;4858738;29;19920;-64
2022/12/30 09:25:37;;;;;;;;;;;;;;;5.87;86.39;98167.09;4856576;29;20284;-63
2022/12/30 09:28:02;;;;;;;;;;;;;;;5.92;86.53;98172.94;4858515;29;20296;-64
2022/12/30 09:30:28;;;;;;;;;;;;;;;5.98;86.54;98163.97;4843650;29;20309;-64
2022/12/30 09:32:53;;;;;;;;;;;;;;;6.05;86.58;98170.56;4858321;29;19931;-64
2022/12/30 09:35:18;;;;;;;;;;;;;;;6.12;86.46;98169.31;4859696;29;19928;-64
2022/12/30 09:37:43;;;;;;;;;;;;;;;6.18;86.78;98164.66;4827988;29;19927;-64
2022/12/30 09:40:12;;;;;;;;;;;;;;;6.24;86.34;98168.72;4843270;29;19920;-65
2022/12/30 09:45:25;;;;;;;;;;;;;;;6.41;86.09;98163.47;4855232;29;20073;-64
2022/12/30 09:47:51;;;;;;;;;;;;;;;6.48;86.11;98148.34;4861254;29;19968;-64
2022/12/30 09:50:20;;;;;;;;;;;;;;;6.56;85.92;98140.97;4843854;29;19978;-64
2022/12/30 09:52:51;;;;;;;;;;;;;;;6.65;85.79;98134.44;4857560;29;19990;-64
2022/12/30 09:55:20;;;;;;;;;;;;;;;6.73;85.60;98121.81;4859972;29;19993;-64
2022/12/30 09:57:48;;;;;;;;;;;;;;;6.82;85.34;98126.53;4844560;29;20372;-64
2022/12/30 10:00:17;;;;;;;;;;;;;;;6.90;85.51;98118.28;4843810;29;19927;-64
2022/12/30 10:02:51;;;;;;;;;;;;;;;6.98;84.91;98118.69;4845893;29;19931;-64
2022/12/30 10:05:16;;;;;;;;;;;;;;;7.06;84.98;98111.31;4847048;29;20374;-65
2022/12/30 10:08:00;;;;;;;;;;;;;;;7.15;84.31;98102.13;4846217;29;19963;-65
2022/12/30 10:10:25;;;;;;;;;;;;;;;7.24;84.36;98106.81;4841831;29;19924;-64
2022/12/30 10:13:09;;;;;;;;;;;;;;;7.33;84.08;98100.25;4856743;29;19987;-65
2022/12/30 10:15:34;;;;;;;;;;;;;;;7.44;84.05;98089.19;4857922;29;19923;-64
2022/12/30 10:18:14;;;;;;;;;;;;;;;7.50;83.23;98091.44;4859755;29;20011;-64
2022/12/30 10:20:58;;;;;;;;;;;;;;;7.56;83.56;98086.69;4843178;29;19916;-64
2022/12/30 10:23:32;;;;;;;;;;;;;;;7.67;83.39;98087.84;4852922;29;19963;-64
2022/12/30 10:26:14;;;;;;;;;;;;;;;7.71;82.77;98078.91;4861056;29;19989;-65
2022/12/30 10:28:59;;;;;;;;;;;;;;;7.75;81.90;98065.59;4843240;29;19972;-64
2022/12/30 10:31:24;;;;;;;;;;;;;;;7.80;81.78;98062.69;4842629;29;20261;-65
2022/12/30 10:33:51;;;;;;;;;;;;;;;7.82;80.99;98051.22;4845006;29;19972;-64
2022/12/30 10:36:17;;;;;;;;;;;;;;;7.87;81.44;98050.13;4841721;29;19924;-64
2022/12/30 10:38:42;;;;;;;;;;;;;;;7.90;80.91;98052.53;4843822;29;19921;-64
2022/12/30 10:41:10;;;;;;;;;;;;;;;7.97;80.43;98053.84;4860588;29;19923;-64
2022/12/30 10:43:38;;;;;;;;;;;;;;;8.04;79.60;98056.00;4856480;29;19927;-64
2022/12/30 10:46:06;;;;;;;;;;;;;;;8.13;79.72;98049.38;4857867;29;19926;-65
2022/12/30 10:48:50;;;;;;;;;;;;;;;8.23;79.25;98055.72;4860301;29;19916;-64
2022/12/30 10:51:15;;;;;;;;;;;;;;;8.31;79.29;98048.25;4859225;29;19928;-64
2022/12/30 10:53:40;;;;;;;;;;;;;;;8.38;79.03;98046.13;4843509;29;20014;-64
2022/12/30 10:56:23;;;;;;;;;;;;;;;8.40;78.12;98046.03;4840689;29;19977;-65
2022/12/30 10:58:49;;;;;;;;;;;;;;;8.44;78.08;98037.06;4859333;29;19920;-64
2022/12/30 11:01:15;;;;;;;;;;;;;;;8.46;77.90;98022.13;4860175;29;20292;-65
2022/12/30 11:03:41;;;;;;;;;;;;;;;8.48;78.23;98018.47;4841874;29;19932;-65
2022/12/30 11:06:17;;;;;;;;;;;;;;;8.48;77.86;98012.41;4841536;29;19920;-65
2022/12/30 11:08:42;;;;;;;;;;;;;;;8.53;78.11;98010.34;4840689;29;20357;-64
2022/12/30 11:11:07;;;;;;;;;;;;;;;8.54;76.79;98005.03;4860143;29;19916;-65
2022/12/30 11:16:17;;;;;;;;;;;;;;;8.61;76.63;98008.09;4840869;29;19975;-64
2022/12/30 11:18:45;;;;;;;;;;;;;;;8.65;76.53;98003.50;4841954;29;20032;-66
2022/12/30 11:21:10;;;;;;;;;;;;;;;8.69;75.33;98000.59;4841395;29;20007;-65
2022/12/30 11:23:36;;;;;;;;;;;;;;;9.42;80.97;97986.22;4842640;29;20006;-65
2022/12/30 11:26:03;;;;;;;;;;;;;;;9.29;74.52;97983.63;4843264;29;20582;-65
2022/12/30 11:28:29;;;;;;;;;;;;;;;9.22;74.13;97988.41;4826053;29;20003;-64
2022/12/30 11:30:55;;;;;;;;;;;;;;;9.13;73.94;97983.78;4840511;29;20656;-64
2022/12/30 11:33:22;;;;;;;;;;;;;;;9.02;73.99;97986.28;4831284;29;19921;-63
2022/12/30 11:35:48;;;;;;;;;;;;;;;8.92;74.34;97990.44;4833971;29;19928;-63
2022/12/30 11:38:33;;;;;;;;;;;;;;;8.87;74.24;97987.25;4842511;29;19927;-63
2022/12/30 11:41:16;;;;;;;;;;;;;;;8.84;73.96;97982.22;4851362;29;19947;-64
2022/12/30 11:43:43;;;;;;;;;;;;;;;8.70;73.91;97986.56;4859145;29;20269;-64
2022/12/30 11:46:09;;;;;;;;;;;;;;;8.77;73.69;97976.56;4841177;29;20071;-63
2022/12/30 11:48:35;;;;;;;;;;;;;;;8.80;73.74;97971.97;4834812;29;20388;-64
2022/12/30 11:51:01;;;;;;;;;;;;;;;8.79;73.07;97970.28;4838850;29;20048;-63
2022/12/30 11:53:30;;;;;;;;;;;;;;;8.72;73.43;97962.94;4837332;29;20010;-64
2022/12/30 11:55:56;;;;;;;;;;;;;;;8.66;73.23;97969.41;4841283;29;19920;-64
2022/12/30 11:58:21;;;;;;;;;;;;;;;8.72;73.56;97969.00;4840200;29;20381;-64
2022/12/30 12:00:47;;;;;;;;;;;;;;;8.76;73.70;97964.41;4843838;29;20563;-64
2022/12/30 12:03:13;;;;;;;;;;;;;;;8.82;73.81;97963.19;4842411;29;19920;-65
2022/12/30 12:05:42;;;;;;;;;;;;;;;8.86;73.52;97967.28;4831331;29;19917;-65
2022/12/30 12:08:13;;;;;;;;;;;;;;;8.92;72.98;97964.28;4827793;29;20019;-64
2022/12/30 12:10:39;;;;;;;;;;;;;;;9.03;72.56;97960.00;4848031;29;19927;-65
2022/12/30 12:13:06;;;;;;;;;;;;;;;9.19;72.43;97954.59;4839729;29;19928;-63
2022/12/30 12:15:50;;;;;;;;;;;;;;;9.42;72.05;97962.66;4841859;29;19920;-64
2022/12/30 12:18:19;;;;;;;;;;;;;;;9.67;71.67;97954.84;4853999;29;20304;-64
2022/12/30 12:21:04;;;;;;;;;;;;;;;9.81;70.52;97959.13;4839983;29;19999;-64
2022/12/30 12:23:29;;;;;;;;;;;;;;;10.04;70.14;97964.53;4859000;29;20006;-63
2022/12/30 12:26:01;;;;;;;;;;;;;;;10.20;69.99;97952.03;4858992;29;20367;-64
2022/12/30 12:28:27;;;;;;;;;;;;;;;10.33;69.46;97958.09;4841307;29;19920;-63
2022/12/30 12:30:58;;;;;;;;;;;;;;;10.69;68.53;97957.22;4853893;29;20300;-63
2022/12/30 12:33:35;;;;;;;;;;;;;;;10.82;67.20;97961.56;4859721;29;19928;-63
2022/12/30 12:36:06;;;;;;;;;;;;;;;10.80;67.66;97963.47;4851929;29;19922;-64
2022/12/30 12:38:31;;;;;;;;;;;;;;;10.74;67.41;97954.28;4842101;29;19920;-64
2022/12/30 12:40:59;;;;;;;;;;;;;;;11.03;70.61;97949.47;4858297;29;19967;-64
2022/12/30 12:43:29;;;;;;;;;;;;;;;11.36;67.39;97945.28;4858956;29;20369;-64
2022/12/30 12:45:54;;;;;;;;;;;;;;;11.46;65.61;97933.13;4844455;29;20303;-67
2022/12/30 12:48:20;;;;;;;;;;;;;;;11.40;64.96;97934.44;4863717;29;19922;-68
2022/12/30 12:50:51;;;;;;;;;;;;;;;11.36;64.79;97937.41;4857047;29;19943;-65
2022/12/30 12:53:29;;;;;;;;;;;;;;;11.29;64.66;97931.78;4841082;29;19931;-67
2022/12/30 12:55:57;;;;;;;;;;;;;;;11.23;64.45;97918.28;4839290;29;19924;-67
2022/12/30 12:58:31;;;;;;;;;;;;;;;11.20;64.82;97908.84;4854675;29;20720;-67
2022/12/30 13:00:56;;;;;;;;;;;;;;;11.15;64.27;97901.34;4839170;29;19920;-65
2022/12/30 13:03:38;;;;;;;;;;;;;;;11.24;64.63;97897.16;4857935;29;19931;-66
2022/12/30 13:06:06;;;;;;;;;;;;;;;11.28;64.12;97905.63;4853904;29;19920;-65
2022/12/30 13:08:31;;;;;;;;;;;;;;;11.28;64.32;97897.75;4843107;29;19933;-65
2022/12/30 13:11:11;;;;;;;;;;;;;;;11.22;64.34;97885.97;4861675;29;19920;-64
2022/12/30 13:13:56;;;;;;;;;;;;;;;11.14;64.65;97878.63;4860172;29;19924;-64
2022/12/30 13:16:27;;;;;;;;;;;;;;;11.08;65.23;97876.50;4856870;29;20373;-67
2022/12/30 13:18:52;;;;;;;;;;;;;;;10.99;65.59;97868.50;4840344;29;19916;-65
2022/12/30 13:21:18;;;;;;;;;;;;;;;10.92;65.39;97862.88;4842390;29;19924;-64
2022/12/30 13:23:51;;;;;;;;;;;;;;;10.84;66.84;97865.22;4829427;29;19920;-65
2022/12/30 13:26:16;;;;;;;;;;;;;;;10.75;66.87;97866.75;4844831;29;19956;-65
2022/12/30 13:28:43;;;;;;;;;;;;;;;10.67;66.93;97864.69;4844828;29;20192;-65
2022/12/30 13:31:29;;;;;;;;;;;;;;;10.61;66.33;97864.31;4867755;29;19916;-65
2022/12/30 13:34:15;;;;;;;;;;;;;;;10.53;67.66;97859.66;4856642;29;19963;-64
2022/12/30 13:37:02;;;;;;;;;;;;;;;10.49;68.29;97854.72;4842929;29;19956;-65
2022/12/30 13:39:41;;;;;;;;;;;;;;;10.46;67.82;97858.44;4844603;29;20407;-67
2022/12/30 13:42:25;;;;;;;;;;;;;;;10.42;68.32;97854.34;4841804;29;20143;-65
2022/12/30 13:44:51;;;;;;;;;;;;;;;10.39;68.75;97846.69;4859391;29;19935;-65
2022/12/30 13:47:28;;;;;;;;;;;;;;;10.36;69.68;97839.06;4859594;29;19920;-65
2022/12/30 13:49:53;;;;;;;;;;;;;;;10.31;69.76;97842.00;4861456;29;20420;-65
2022/12/30 13:52:19;;;;;;;;;;;;;;;10.24;69.42;97846.00;4829437;29;19916;-65
2022/12/30 13:54:51;;;;;;;;;;;;;;;10.17;70.15;97840.38;4843912;29;19930;-65
2022/12/30 13:57:28;;;;;;;;;;;;;;;10.10;70.24;97836.53;4844064;29;19920;-66
2022/12/30 14:00:06;;;;;;;;;;;;;;;10.01;70.76;97824.06;4844701;29;19920;-64
2022/12/30 14:02:34;;;;;;;;;;;;;;;9.91;71.00;97823.94;4861242;29;19964;-65
2022/12/30 14:05:00;;;;;;;;;;;;;;;9.82;72.14;97808.03;4860795;29;19946;-64
2022/12/30 14:07:38;;;;;;;;;;;;;;;9.74;71.96;97811.22;4859173;29;20382;-64
2022/12/30 14:10:15;;;;;;;;;;;;;;;9.65;72.69;97811.84;4857133;29;19923;-64
2022/12/30 14:12:41;;;;;;;;;;;;;;;9.55;72.77;97800.34;4862784;29;20008;-65
2022/12/30 14:15:25;;;;;;;;;;;;;;;9.46;72.60;97830.63;4844227;29;19994;-65
2022/12/30 14:17:50;;;;;;;;;;;;;;;9.37;73.71;97818.19;4843910;29;20292;-62
2022/12/30 14:20:21;;;;;;;;;;;;;;;9.33;74.25;97816.75;4858560;29;20392;-64
2022/12/30 14:22:49;;;;;;;;;;;;;;;9.26;74.21;97811.94;4860640;29;19994;-64
2022/12/30 14:25:14;;;;;;;;;;;;;;;9.22;74.85;97793.91;4860578;29;19996;-64
2022/12/30 14:27:46;;;;;;;;;;;;;;;9.17;75.14;97791.63;4859743;29;19956;-64
2022/12/30 14:30:23;;;;;;;;;;;;;;;9.12;74.92;97788.50;4843216;29;20377;-63
2022/12/30 14:32:56;;;;;;;;;;;;;;;9.08;75.85;97794.03;4861402;29;19925;-64
2022/12/30 14:35:21;;;;;;;;;;;;;;;9.03;75.65;97789.13;4843601;29;19969;-65
2022/12/30 14:37:46;;;;;;;;;;;;;;;8.99;75.43;97785.06;4827527;29;19928;-64
2022/12/30 14:40:27;;;;;;;;;;;;;;;8.97;76.18;97784.31;4849701;29;19916;-64
2022/12/30 14:42:52;;;;;;;;;;;;;;;8.91;75.89;97780.34;4843931;29;19916;-63
2022/12/30 14:45:23;;;;;;;;;;;;;;;8.89;76.23;97776.16;4842969;29;20065;-64
2022/12/30 14:47:48;;;;;;;;;;;;;;;8.85;76.45;97772.09;4843984;29;20040;-64
2022/12/30 14:50:14;;;;;;;;;;;;;;;8.78;76.40;97769.88;4859555;29;19924;-64
2022/12/30 14:52:41;;;;;;;;;;;;;;;8.76;76.52;97771.75;4842293;29;20399;-64
2022/12/30 14:55:09;;;;;;;;;;;;;;;8.71;76.39;97773.84;4842701;29;19927;-63
2022/12/30 14:57:35;;;;;;;;;;;;;;;8.67;76.92;97767.16;4858364;29;19988;-63
2022/12/30 15:00:07;;;;;;;;;;;;;;;8.64;77.31;97770.00;4843618;29;20444;-63
2022/12/30 15:02:33;;;;;;;;;;;;;;;8.62;77.31;97774.47;4860337;29;20014;-65
2022/12/30 15:05:31;;;;;;;;;;;;;;;8.59;77.61;97773.84;4857297;29;20015;-64
2022/12/30 15:08:07;;;;;;;;;;;;;;;10.93;80.86;97760.41;4820010;29;19934;-67
2022/12/30 15:10:32;;;;;;;;;;;;;;;10.38;71.66;97761.97;4847431;29;19927;-63
2022/12/30 15:13:15;;;;;;;;;;;;;;;9.92;71.12;97762.72;4859708;29;19928;-64
2022/12/30 15:15:44;;;;;;;;;;;;;;;9.54;72.47;97757.63;4861288;29;20344;-63
2022/12/30 15:18:25;;;;;;;;;;;;;;;9.27;73.49;97756.00;4856995;29;20019;-63
2022/12/30 15:20:50;;;;;;;;;;;;;;;9.03;74.19;97752.50;4841204;29;19935;-61
2022/12/30 15:23:16;;;;;;;;;;;;;;;8.88;75.02;97743.94;4842711;29;19920;-63
2022/12/30 15:25:41;;;;;;;;;;;;;;;8.70;76.01;97739.97;4859703;29;19916;-62
2022/12/30 15:28:08;;;;;;;;;;;;;;;8.55;76.34;97742.69;4842493;29;20022;-63
2022/12/30 15:30:33;;;;;;;;;;;;;;;8.48;76.97;97748.44;4843183;29;20092;-62
2022/12/30 15:33:03;;;;;;;;;;;;;;;8.38;76.99;97747.38;4842509;29;20448;-62
2022/12/30 15:35:31;;;;;;;;;;;;;;;8.30;77.64;97740.03;4846761;29;19920;-64
2022/12/30 15:37:56;;;;;;;;;;;;;;;8.22;77.85;97724.81;4843178;29;19964;-63
2022/12/30 15:40:22;;;;;;;;;;;;;;;8.20;78.15;97713.66;4837596;29;19920;-63
2022/12/30 15:42:51;;;;;;;;;;;;;;;8.15;78.51;97718.34;4842617;29;20007;-62
2022/12/30 15:45:28;;;;;;;;;;;;;;;8.12;78.36;97713.34;4842650;29;19917;-63
2022/12/30 15:47:54;;;;;;;;;;;;;;;8.09;78.84;97713.53;4843228;29;20013;-63
2022/12/30 15:50:32;;;;;;;;;;;;;;;8.06;79.38;97713.75;4848889;29;20381;-63
2022/12/30 15:52:58;;;;;;;;;;;;;;;8.04;79.35;97710.38;4842262;29;20051;-65
2022/12/30 15:55:23;;;;;;;;;;;;;;;8.04;79.53;97713.00;4842540;29;20550;-63
2022/12/30 15:57:48;;;;;;;;;;;;;;;8.01;79.37;97705.38;4859575;29;19916;-62
2022/12/30 16:00:18;;;;;;;;;;;;;;;8.00;79.26;97714.97;4842827;29;19916;-63
2022/12/30 16:02:43;;;;;;;;;;;;;;;8.01;79.38;97705.38;4845499;29;19984;-63
2022/12/30 16:05:16;;;;;;;;;;;;;;;7.98;79.61;97697.72;4842248;29;20354;-65
2022/12/30 16:07:42;;;;;;;;;;;;;;;7.96;80.19;97702.22;4843037;29;20311;-64
2022/12/30 16:10:10;;;;;;;;;;;;;;;7.96;80.59;97715.28;4859364;29;20411;-63
2022/12/30 16:12:35;;;;;;;;;;;;;;;7.92;80.29;97711.22;4856264;29;19923;-64
2022/12/30 16:15:00;;;;;;;;;;;;;;;7.92;80.91;97717.28;4857913;29;20281;-64
2022/12/30 16:17:29;;;;;;;;;;;;;;;7.90;80.45;97719.13;4852635;29;20004;-63
2022/12/30 16:19:54;;;;;;;;;;;;;;;7.90;80.42;97723.53;4841109;29;19917;-63
2022/12/30 16:22:20;;;;;;;;;;;;;;;7.89;81.09;97724.47;4826709;29;19943;-63
2022/12/30 16:24:48;;;;;;;;;;;;;;;7.87;80.99;97719.31;4857993;29;19920;-64
2022/12/30 16:27:17;;;;;;;;;;;;;;;7.85;81.28;97724.66;4842594;29;19917;-63
2022/12/30 16:29:44;;;;;;;;;;;;;;;7.82;81.67;97730.09;4842637;29;20270;-65
2022/12/30 16:32:13;;;;;;;;;;;;;;;7.82;81.82;97737.09;4846434;29;19956;-64
2022/12/30 16:34:38;;;;;;;;;;;;;;;7.80;81.58;97742.38;4840642;29;19966;-64
2022/12/30 16:37:14;;;;;;;;;;;;;;;7.79;82.27;97732.06;4856994;29;19959;-64
2022/12/30 16:39:39;;;;;;;;;;;;;;;7.79;82.82;97732.88;4850347;29;19928;-65
2022/12/30 16:42:04;;;;;;;;;;;;;;;7.80;82.54;97738.94;4837568;29;20200;-66
2022/12/30 16:44:29;;;;;;;;;;;;;;;7.81;82.94;97740.59;4859877;29;19924;-64
2022/12/30 16:46:55;;;;;;;;;;;;;;;7.79;83.14;97739.88;4859143;29;20006;-64
2022/12/30 16:49:20;;;;;;;;;;;;;;;7.79;83.31;97738.09;4862348;29;19916;-64
2022/12/30 16:51:46;;;;;;;;;;;;;;;7.80;83.61;97728.50;4858253;29;19927;-64
2022/12/30 16:54:12;;;;;;;;;;;;;;;7.77;83.81;97719.09;4844707;29;19920;-63
2022/12/30 16:56:38;;;;;;;;;;;;;;;7.77;84.54;97711.25;4843171;29;19924;-63
2022/12/30 16:59:03;;;;;;;;;;;;;;;7.76;84.70;97706.97;4862256;29;19924;-65
2022/12/30 17:01:28;;;;;;;;;;;;;;;7.75;84.55;97705.31;4858690;29;20125;-65
2022/12/30 17:03:53;;;;;;;;;;;;;;;7.76;85.15;97701.75;4845269;29;19920;-66
2022/12/30 17:06:19;;;;;;;;;;;;;;;7.77;85.31;97695.59;4846989;29;19927;-65
2022/12/30 17:08:44;;;;;;;;;;;;;;;7.77;85.44;97694.75;4859323;29;20015;-65
2022/12/30 17:11:10;;;;;;;;;;;;;;;7.77;84.85;97698.19;4860152;29;20004;-66
2022/12/30 17:13:36;;;;;;;;;;;;;;;7.76;85.17;97693.09;4830216;29;19924;-65
2022/12/30 17:16:02;;;;;;;;;;;;;;;7.77;85.40;97697.38;4855156;29;20019;-66
2022/12/30 17:18:28;;;;;;;;;;;;;;;7.75;85.59;97694.88;4858398;29;20015;-64
2022/12/30 17:20:56;;;;;;;;;;;;;;;7.75;86.16;97689.66;4844936;29;20010;-65
2022/12/30 17:23:32;;;;;;;;;;;;;;;7.75;85.75;97683.59;4843478;29;19988;-66
2022/12/30 17:25:57;;;;;;;;;;;;;;;7.73;86.51;97686.28;4861150;29;19955;-65
2022/12/30 17:28:22;;;;;;;;;;;;;;;7.73;86.09;97681.06;4842339;29;20452;-65
2022/12/30 17:30:47;;;;;;;;;;;;;;;7.73;86.81;97680.22;4858755;29;19924;-65
2022/12/30 17:33:13;;;;;;;;;;;;;;;7.72;87.02;97668.97;4860196;29;19934;-66
2022/12/30 17:35:38;;;;;;;;;;;;;;;7.72;87.52;97671.56;4840402;29;19920;-66
2022/12/30 17:38:03;;;;;;;;;;;;;;;7.72;86.92;97668.97;4861232;29;19924;-67
2022/12/30 17:40:28;;;;;;;;;;;;;;;7.74;87.52;97664.50;4856706;29;19920;-67
2022/12/30 17:42:53;;;;;;;;;;;;;;;7.74;87.82;97666.22;4857968;29;19920;-65
2022/12/30 17:45:19;;;;;;;;;;;;;;;7.72;87.18;97666.34;4861922;29;19984;-65
2022/12/30 17:47:49;;;;;;;;;;;;;;;7.74;87.04;97661.88;4845584;29;19920;-66
2022/12/30 17:50:14;;;;;;;;;;;;;;;7.74;87.50;97661.88;4862948;29;19924;-66
2022/12/30 17:52:39;;;;;;;;;;;;;;;7.73;88.21;97669.78;4844998;29;19927;-65
2022/12/30 17:55:05;;;;;;;;;;;;;;;7.73;88.31;97654.97;4859891;29;19928;-65
2022/12/30 17:57:30;;;;;;;;;;;;;;;7.73;88.51;97660.19;4843956;29;19916;-66
2022/12/30 17:59:55;;;;;;;;;;;;;;;7.73;87.78;97661.97;4862619;29;19920;-64
2022/12/30 18:02:21;;;;;;;;;;;;;;;7.72;88.65;97650.69;4861669;29;19920;-66
2022/12/30 18:04:46;;;;;;;;;;;;;;;7.71;88.72;97664.69;4860162;29;19920;-65
2022/12/30 18:07:11;;;;;;;;;;;;;;;7.71;88.58;97656.84;4860645;29;19927;-65
2022/12/30 18:09:37;;;;;;;;;;;;;;;7.71;89.11;97656.84;4861376;29;19931;-65
2022/12/30 18:12:12;;;;;;;;;;;;;;;7.71;89.72;97654.25;4845127;29;19916;-66
2022/12/30 18:14:37;;;;;;;;;;;;;;;7.66;89.46;97658.91;4843596;29;19928;-66
2022/12/30 18:17:02;;;;;;;;;;;;;;;7.66;89.81;97653.69;4857384;29;19939;-65
2022/12/30 18:19:28;;;;;;;;;;;;;;;7.67;89.71;97655.34;4846715;29;19928;-65
2022/12/30 18:21:53;;;;;;;;;;;;;;;7.68;89.68;97630.13;4860322;29;19924;-65
2022/12/30 18:24:18;;;;;;;;;;;;;;;7.69;90.14;97643.06;4858623;29;20012;-66
2022/12/30 18:26:43;;;;;;;;;;;;;;;7.70;89.96;97636.88;4860152;29;19924;-65
2022/12/30 18:29:08;;;;;;;;;;;;;;;7.74;90.10;97646.22;4867188;29;19923;-65
2022/12/30 18:31:35;;;;;;;;;;;;;;;7.74;89.90;97641.00;4862798;29;19927;-65
2022/12/30 18:34:00;;;;;;;;;;;;;;;7.75;90.07;97634.81;4861069;29;20276;-66
2022/12/30 18:36:27;;;;;;;;;;;;;;;7.75;90.33;97636.59;4856617;29;19930;-66
2022/12/30 18:38:54;;;;;;;;;;;;;;;7.76;89.85;97628.66;4861046;29;19916;-65
2022/12/30 18:41:19;;;;;;;;;;;;;;;7.78;90.02;97621.56;4860961;29;20376;-66
2022/12/30 18:43:45;;;;;;;;;;;;;;;7.80;89.82;97637.94;4860981;29;19916;-65
2022/12/30 18:46:11;;;;;;;;;;;;;;;7.76;90.81;97654.75;4843518;29;19985;-66
2022/12/30 18:48:37;;;;;;;;;;;;;;;7.77;90.24;97645.97;4842499;29;19920;-65
2022/12/30 18:51:02;;;;;;;;;;;;;;;7.78;90.23;97655.50;4856849;29;20339;-66
2022/12/30 18:53:27;;;;;;;;;;;;;;;7.75;90.99;97653.09;4842067;29;20335;-66
2022/12/30 18:56:02;;;;;;;;;;;;;;;7.77;91.17;97650.38;4826452;29;19959;-65
2022/12/30 18:58:27;;;;;;;;;;;;;;;7.78;90.67;97650.28;4854389;29;19927;-66
2022/12/30 19:00:52;;;;;;;;;;;;;;;7.84;91.05;97651.63;4855341;29;20358;-66
2022/12/30 19:03:18;;;;;;;;;;;;;;;7.84;90.45;97631.63;4859415;29;19959;-66
2022/12/30 19:05:43;;;;;;;;;;;;;;;7.85;91.11;97659.38;4839457;29;19924;-65
2022/12/30 19:08:08;;;;;;;;;;;;;;;7.81;90.74;97637.03;4859405;29;19955;-65
2022/12/30 19:10:33;;;;;;;;;;;;;;;7.85;91.56;97625.44;4859329;29;19920;-65
2022/12/30 19:12:59;;;;;;;;;;;;;;;7.83;91.86;97645.59;4860527;29;19945;-66
2022/12/30 19:15:24;;;;;;;;;;;;;;;7.85;91.81;97648.94;4859101;29;19916;-66
2022/12/30 19:17:49;;;;;;;;;;;;;;;7.89;91.18;97648.75;4856971;29;19920;-66
2022/12/30 19:20:14;;;;;;;;;;;;;;;7.83;91.87;97637.75;4852706;29;19950;-66
2022/12/30 19:22:39;;;;;;;;;;;;;;;7.82;91.72;97646.53;4860227;29;19920;-66
2022/12/30 19:25:05;;;;;;;;;;;;;;;7.84;92.62;97647.28;4860127;29;19916;-66
2022/12/30 19:27:30;;;;;;;;;;;;;;;7.88;91.99;97647.03;4859509;29;20388;-66
2022/12/30 19:29:55;;;;;;;;;;;;;;;7.90;92.51;97639.97;4859370;29;20004;-65
2022/12/30 19:32:20;;;;;;;;;;;;;;;7.89;92.65;97638.28;4858415;29;20346;-65
2022/12/30 19:34:46;;;;;;;;;;;;;;;7.91;92.71;97631.19;4859916;29;20329;-66
2022/12/30 19:37:13;;;;;;;;;;;;;;;7.93;92.10;97655.44;4843208;29;20212;-65
2022/12/30 19:39:38;;;;;;;;;;;;;;;7.95;92.03;97653.53;4860014;29;20099;-65
2022/12/30 19:42:03;;;;;;;;;;;;;;;7.95;92.06;97632.63;4857273;29;19924;-66
2022/12/30 19:44:28;;;;;;;;;;;;;;;7.97;92.34;97638.63;4857978;29;19949;-66
2022/12/30 19:46:54;;;;;;;;;;;;;;;7.98;92.59;97648.09;4859882;29;19916;-65
2022/12/30 19:49:20;;;;;;;;;;;;;;;8.05;92.08;97670.25;4859998;29;19924;-66
2022/12/30 19:51:45;;;;;;;;;;;;;;;8.04;91.78;97666.81;4843438;29;19916;-65
2022/12/30 19:54:10;;;;;;;;;;;;;;;8.04;91.66;97653.75;4856211;29;19944;-65
2022/12/30 19:56:36;;;;;;;;;;;;;;;8.00;92.25;97660.13;4859834;29;19964;-65
2022/12/30 19:59:01;;;;;;;;;;;;;;;8.05;91.70;97665.03;4871439;29;19920;-66
2022/12/30 20:01:27;;;;;;;;;;;;;;;7.99;92.01;97670.69;4861710;29;19923;-66
2022/12/30 20:03:56;;;;;;;;;;;;;;;7.98;92.54;97685.53;4852863;29;19920;-66
2022/12/30 20:06:21;;;;;;;;;;;;;;;8.01;91.97;97679.25;4842370;29;19955;-66
2022/12/30 20:08:46;;;;;;;;;;;;;;;8.05;91.85;97688.53;4859584;29;19978;-66
2022/12/30 20:11:13;;;;;;;;;;;;;;;8.07;92.11;97663.16;4859975;29;19916;-65
2022/12/30 20:13:38;;;;;;;;;;;;;;;8.04;91.99;97658.16;4858942;29;20395;-65
2022/12/30 20:16:07;;;;;;;;;;;;;;;8.04;91.88;97679.88;4856124;29;20024;-65
2022/12/30 20:18:32;;;;;;;;;;;;;;;8.06;91.04;97674.56;4845335;29;19972;-66
2022/12/30 20:21:00;;;;;;;;;;;;;;;8.04;91.28;97669.44;4863567;29;19919;-65
2022/12/30 20:23:25;;;;;;;;;;;;;;;8.05;91.98;97670.25;4846440;29;19926;-67
2022/12/30 20:25:50;;;;;;;;;;;;;;;8.16;90.67;97691.31;4863502;29;19916;-65
2022/12/30 20:28:15;;;;;;;;;;;;;;;8.17;90.64;97672.06;4862292;29;20011;-66
2022/12/30 20:30:43;;;;;;;;;;;;;;;8.13;91.04;97673.22;4852140;29;19927;-65
2022/12/30 20:33:08;;;;;;;;;;;;;;;8.18;90.45;97681.56;4857144;29;19976;-65
2022/12/30 20:35:34;;;;;;;;;;;;;;;8.17;90.66;97677.28;4866367;29;19920;-65
2022/12/30 20:37:59;;;;;;;;;;;;;;;8.17;90.96;97700.81;4861983;29;19977;-64
2022/12/30 20:40:24;;;;;;;;;;;;;;;8.17;90.97;97697.34;4856730;29;19920;-66
2022/12/30 20:42:49;;;;;;;;;;;;;;;8.15;90.74;97681.78;4866683;29;19920;-65
2022/12/30 20:45:15;;;;;;;;;;;;;;;8.22;91.22;97703.09;4857344;29;19976;-66
2022/12/30 20:47:40;;;;;;;;;;;;;;;8.23;90.66;97695.19;4854978;29;19923;-66
2022/12/30 20:50:05;;;;;;;;;;;;;;;8.27;90.92;97696.63;4856797;29;19920;-65
2022/12/30 20:52:30;;;;;;;;;;;;;;;8.36;90.82;97705.63;4862839;29;19919;-65
2022/12/30 20:54:55;;;;;;;;;;;;;;;8.35;91.30;97703.13;4862646;29;19976;-65
2022/12/30 20:57:21;;;;;;;;;;;;;;;8.32;90.96;97698.94;4861999;29;19917;-65
2022/12/30 20:59:47;;;;;;;;;;;;;;;8.39;91.48;97713.28;4860122;29;19977;-66
2022/12/30 21:02:12;;;;;;;;;;;;;;;8.36;91.58;97720.47;4846295;29;19920;-66
2022/12/30 21:04:37;;;;;;;;;;;;;;;8.39;91.30;97723.72;4862572;29;19924;-65
2022/12/30 21:07:02;;;;;;;;;;;;;;;8.40;91.78;97720.19;4861944;29;19920;-66
2022/12/30 21:09:27;;;;;;;;;;;;;;;8.41;91.53;97703.56;4860863;29;19920;-65
2022/12/30 21:11:53;;;;;;;;;;;;;;;8.39;91.64;97702.00;4845186;29;20188;-64
2022/12/30 21:14:18;;;;;;;;;;;;;;;8.45;91.54;97705.03;4861840;29;19927;-66
2022/12/30 21:16:43;;;;;;;;;;;;;;;8.44;91.75;97707.75;4858725;29;19920;-65
2022/12/30 21:19:08;;;;;;;;;;;;;;;8.41;92.00;97706.19;4849932;29;19988;-65
2022/12/30 21:21:34;;;;;;;;;;;;;;;8.37;91.87;97711.72;4859770;29;20010;-65
2022/12/30 21:23:59;;;;;;;;;;;;;;;8.35;92.20;97710.97;4861585;29;20396;-65
2022/12/30 21:26:26;;;;;;;;;;;;;;;8.36;92.42;97713.47;4865721;29;20005;-65